sensor_id;sensor_type;location;lat;lon;timestamp;P1;durP1;ratioP1;P2;durP2;ratioP2
32138;SDS011;18644;48.700;9.210;2023-04-15T00:00:50;4.38;;;2.38;;
32138;SDS011;18644;48.700;9.210;2023-04-15T00:03:18;3.75;;;2.40;;
32138;SDS011;18644;48.700;9.210;2023-04-15T00:05:45;2.75;;;2.10;;
32138;SDS011;18644;48.700;9.210;2023-04-15T00:08:12;3.17;;;2.00;;
32138;SDS011;18644;48.700;9.210;2023-04-15T00:10:39;3.45;;;2.35;;
32138;SDS011;18644;48.700;9.210;2023-04-15T00:13:08;4.05;;;2.17;;
32138;SDS011;18644;48.700;9.210;2023-04-15T00:15:35;4.13;;;2.35;;
32138;SDS011;18644;48.700;9.210;2023-04-15T00:18:04;5.93;;;2.60;;
32138;SDS011;18644;48.700;9.210;2023-04-15T00:20:31;6.28;;;2.03;;
32138;SDS011;18644;48.700;9.210;2023-04-15T00:22:58;3.33;;;2.30;;
32138;SDS011;18644;48.700;9.210;2023-04-15T00:25:25;3.67;;;2.20;;
32138;SDS011;18644;48.700;9.210;2023-04-15T00:27:53;2.45;;;1.98;;
32138;SDS011;18644;48.700;9.210;2023-04-15T00:30:20;2.60;;;1.80;;
32138;SDS011;18644;48.700;9.210;2023-04-15T00:32:47;2.85;;;1.90;;
32138;SDS011;18644;48.700;9.210;2023-04-15T00:35:16;4.35;;;2.22;;
32138;SDS011;18644;48.700;9.210;2023-04-15T00:37:43;4.22;;;2.65;;
32138;SDS011;18644;48.700;9.210;2023-04-15T00:40:10;3.47;;;2.17;;
32138;SDS011;18644;48.700;9.210;2023-04-15T00:42:38;3.35;;;2.08;;
32138;SDS011;18644;48.700;9.210;2023-04-15T00:45:06;3.22;;;1.90;;
32138;SDS011;18644;48.700;9.210;2023-04-15T00:47:34;2.90;;;1.67;;
32138;SDS011;18644;48.700;9.210;2023-04-15T00:50:02;2.53;;;1.85;;
32138;SDS011;18644;48.700;9.210;2023-04-15T00:52:32;2.70;;;1.80;;
32138;SDS011;18644;48.700;9.210;2023-04-15T00:54:59;2.35;;;1.70;;
32138;SDS011;18644;48.700;9.210;2023-04-15T00:57:26;2.55;;;1.75;;
32138;SDS011;18644;48.700;9.210;2023-04-15T00:59:54;2.67;;;1.80;;
32138;SDS011;18644;48.700;9.210;2023-04-15T01:02:22;2.03;;;1.83;;
32138;SDS011;18644;48.700;9.210;2023-04-15T01:04:49;1.77;;;1.40;;
32138;SDS011;18644;48.700;9.210;2023-04-15T01:07:16;2.42;;;1.65;;
32138;SDS011;18644;48.700;9.210;2023-04-15T01:09:44;3.95;;;2.00;;
32138;SDS011;18644;48.700;9.210;2023-04-15T01:12:12;2.85;;;2.00;;
32138;SDS011;18644;48.700;9.210;2023-04-15T01:14:40;3.20;;;1.83;;
32138;SDS011;18644;48.700;9.210;2023-04-15T01:17:07;4.82;;;2.55;;
32138;SDS011;18644;48.700;9.210;2023-04-15T01:19:35;3.30;;;1.70;;
32138;SDS011;18644;48.700;9.210;2023-04-15T01:22:03;1.73;;;1.50;;
32138;SDS011;18644;48.700;9.210;2023-04-15T01:24:31;2.13;;;1.58;;
32138;SDS011;18644;48.700;9.210;2023-04-15T01:26:59;2.50;;;1.52;;
32138;SDS011;18644;48.700;9.210;2023-04-15T01:29:29;3.40;;;1.67;;
32138;SDS011;18644;48.700;9.210;2023-04-15T01:31:57;2.08;;;1.70;;
32138;SDS011;18644;48.700;9.210;2023-04-15T01:34:24;2.13;;;1.92;;
32138;SDS011;18644;48.700;9.210;2023-04-15T01:36:51;1.77;;;1.65;;
32138;SDS011;18644;48.700;9.210;2023-04-15T01:39:18;2.47;;;1.75;;
32138;SDS011;18644;48.700;9.210;2023-04-15T01:41:45;2.00;;;1.35;;
32138;SDS011;18644;48.700;9.210;2023-04-15T01:44:13;2.85;;;1.77;;
32138;SDS011;18644;48.700;9.210;2023-04-15T01:46:40;3.95;;;1.90;;
32138;SDS011;18644;48.700;9.210;2023-04-15T01:49:07;4.47;;;2.28;;
32138;SDS011;18644;48.700;9.210;2023-04-15T01:51:34;4.65;;;2.70;;
32138;SDS011;18644;48.700;9.210;2023-04-15T01:54:01;3.15;;;1.90;;
32138;SDS011;18644;48.700;9.210;2023-04-15T01:56:28;3.35;;;2.47;;
32138;SDS011;18644;48.700;9.210;2023-04-15T01:58:55;3.20;;;2.20;;
32138;SDS011;18644;48.700;9.210;2023-04-15T02:01:23;3.40;;;2.20;;
32138;SDS011;18644;48.700;9.210;2023-04-15T02:03:51;5.05;;;2.22;;
32138;SDS011;18644;48.700;9.210;2023-04-15T02:06:18;2.42;;;1.60;;
32138;SDS011;18644;48.700;9.210;2023-04-15T02:08:45;2.42;;;1.77;;
32138;SDS011;18644;48.700;9.210;2023-04-15T02:11:11;2.47;;;2.13;;
32138;SDS011;18644;48.700;9.210;2023-04-15T02:13:38;4.82;;;2.40;;
32138;SDS011;18644;48.700;9.210;2023-04-15T02:16:13;3.85;;;1.85;;
32138;SDS011;18644;48.700;9.210;2023-04-15T02:18:43;3.83;;;1.70;;
32138;SDS011;18644;48.700;9.210;2023-04-15T02:21:10;3.47;;;1.98;;
32138;SDS011;18644;48.700;9.210;2023-04-15T02:23:37;3.83;;;2.00;;
32138;SDS011;18644;48.700;9.210;2023-04-15T02:26:03;3.38;;;1.95;;
32138;SDS011;18644;48.700;9.210;2023-04-15T02:28:30;5.05;;;2.45;;
32138;SDS011;18644;48.700;9.210;2023-04-15T02:30:57;2.80;;;1.80;;
32138;SDS011;18644;48.700;9.210;2023-04-15T02:33:25;3.00;;;1.67;;
32138;SDS011;18644;48.700;9.210;2023-04-15T02:35:53;3.92;;;1.80;;
32138;SDS011;18644;48.700;9.210;2023-04-15T02:38:20;2.90;;;1.90;;
32138;SDS011;18644;48.700;9.210;2023-04-15T02:40:47;2.70;;;2.03;;
32138;SDS011;18644;48.700;9.210;2023-04-15T02:43:15;3.03;;;1.58;;
32138;SDS011;18644;48.700;9.210;2023-04-15T02:45:42;3.78;;;1.95;;
32138;SDS011;18644;48.700;9.210;2023-04-15T02:48:10;3.45;;;1.70;;
32138;SDS011;18644;48.700;9.210;2023-04-15T02:50:37;4.07;;;1.98;;
32138;SDS011;18644;48.700;9.210;2023-04-15T02:53:06;3.47;;;1.70;;
32138;SDS011;18644;48.700;9.210;2023-04-15T02:55:32;2.60;;;1.75;;
32138;SDS011;18644;48.700;9.210;2023-04-15T02:57:59;5.13;;;2.47;;
32138;SDS011;18644;48.700;9.210;2023-04-15T03:00:26;3.85;;;2.00;;
32138;SDS011;18644;48.700;9.210;2023-04-15T03:02:56;4.18;;;1.90;;
32138;SDS011;18644;48.700;9.210;2023-04-15T03:05:28;3.13;;;1.98;;
32138;SDS011;18644;48.700;9.210;2023-04-15T03:07:55;3.13;;;2.20;;
32138;SDS011;18644;48.700;9.210;2023-04-15T03:10:23;3.20;;;1.95;;
32138;SDS011;18644;48.700;9.210;2023-04-15T03:12:50;3.63;;;1.77;;
32138;SDS011;18644;48.700;9.210;2023-04-15T03:15:17;2.42;;;1.83;;
32138;SDS011;18644;48.700;9.210;2023-04-15T03:17:44;2.55;;;1.70;;
32138;SDS011;18644;48.700;9.210;2023-04-15T03:20:13;1.85;;;1.63;;
32138;SDS011;18644;48.700;9.210;2023-04-15T03:22:40;2.22;;;1.73;;
32138;SDS011;18644;48.700;9.210;2023-04-15T03:25:08;2.58;;;1.52;;
32138;SDS011;18644;48.700;9.210;2023-04-15T03:27:36;2.08;;;1.55;;
32138;SDS011;18644;48.700;9.210;2023-04-15T03:30:04;1.73;;;1.20;;
32138;SDS011;18644;48.700;9.210;2023-04-15T03:32:32;4.57;;;1.45;;
32138;SDS011;18644;48.700;9.210;2023-04-15T03:35:00;3.55;;;2.05;;
32138;SDS011;18644;48.700;9.210;2023-04-15T03:37:26;5.97;;;2.58;;
32138;SDS011;18644;48.700;9.210;2023-04-15T03:39:53;4.55;;;2.13;;
32138;SDS011;18644;48.700;9.210;2023-04-15T03:42:20;3.53;;;1.80;;
32138;SDS011;18644;48.700;9.210;2023-04-15T03:44:48;4.05;;;2.08;;
32138;SDS011;18644;48.700;9.210;2023-04-15T03:47:16;4.18;;;1.60;;
32138;SDS011;18644;48.700;9.210;2023-04-15T03:49:43;2.00;;;1.65;;
32138;SDS011;18644;48.700;9.210;2023-04-15T03:52:10;2.78;;;1.70;;
32138;SDS011;18644;48.700;9.210;2023-04-15T03:54:37;2.65;;;2.25;;
32138;SDS011;18644;48.700;9.210;2023-04-15T03:57:03;2.85;;;1.77;;
32138;SDS011;18644;48.700;9.210;2023-04-15T03:59:30;3.50;;;1.70;;
32138;SDS011;18644;48.700;9.210;2023-04-15T04:01:59;6.63;;;2.17;;
32138;SDS011;18644;48.700;9.210;2023-04-15T04:04:25;1.48;;;1.38;;
32138;SDS011;18644;48.700;9.210;2023-04-15T04:06:52;1.92;;;1.42;;
32138;SDS011;18644;48.700;9.210;2023-04-15T04:09:19;3.17;;;1.88;;
32138;SDS011;18644;48.700;9.210;2023-04-15T04:11:46;4.15;;;1.95;;
32138;SDS011;18644;48.700;9.210;2023-04-15T04:14:13;1.60;;;1.48;;
32138;SDS011;18644;48.700;9.210;2023-04-15T04:16:40;3.47;;;1.83;;
32138;SDS011;18644;48.700;9.210;2023-04-15T04:19:08;4.15;;;1.80;;
32138;SDS011;18644;48.700;9.210;2023-04-15T04:21:35;3.03;;;1.75;;
32138;SDS011;18644;48.700;9.210;2023-04-15T04:24:03;4.88;;;1.95;;
32138;SDS011;18644;48.700;9.210;2023-04-15T04:26:30;2.78;;;2.17;;
32138;SDS011;18644;48.700;9.210;2023-04-15T04:28:57;4.88;;;2.45;;
32138;SDS011;18644;48.700;9.210;2023-04-15T04:31:24;4.10;;;2.08;;
32138;SDS011;18644;48.700;9.210;2023-04-15T04:33:51;3.10;;;2.20;;
32138;SDS011;18644;48.700;9.210;2023-04-15T04:36:19;5.65;;;2.20;;
32138;SDS011;18644;48.700;9.210;2023-04-15T04:38:46;4.10;;;2.17;;
32138;SDS011;18644;48.700;9.210;2023-04-15T04:41:13;5.05;;;2.63;;
32138;SDS011;18644;48.700;9.210;2023-04-15T04:43:40;4.00;;;2.50;;
32138;SDS011;18644;48.700;9.210;2023-04-15T04:46:07;6.40;;;3.00;;
32138;SDS011;18644;48.700;9.210;2023-04-15T04:48:34;3.83;;;2.35;;
32138;SDS011;18644;48.700;9.210;2023-04-15T04:51:01;2.47;;;1.98;;
32138;SDS011;18644;48.700;9.210;2023-04-15T04:53:30;2.30;;;2.10;;
32138;SDS011;18644;48.700;9.210;2023-04-15T04:55:57;3.65;;;2.55;;
32138;SDS011;18644;48.700;9.210;2023-04-15T04:58:24;3.00;;;2.15;;
32138;SDS011;18644;48.700;9.210;2023-04-15T05:00:51;4.55;;;1.98;;
32138;SDS011;18644;48.700;9.210;2023-04-15T05:03:18;5.30;;;2.30;;
32138;SDS011;18644;48.700;9.210;2023-04-15T05:05:45;3.85;;;2.38;;
32138;SDS011;18644;48.700;9.210;2023-04-15T05:08:13;6.43;;;3.20;;
32138;SDS011;18644;48.700;9.210;2023-04-15T05:10:41;8.98;;;3.35;;
32138;SDS011;18644;48.700;9.210;2023-04-15T05:13:08;5.63;;;3.10;;
32138;SDS011;18644;48.700;9.210;2023-04-15T05:15:35;7.07;;;3.03;;
32138;SDS011;18644;48.700;9.210;2023-04-15T05:18:05;2.92;;;2.38;;
32138;SDS011;18644;48.700;9.210;2023-04-15T05:20:32;5.30;;;3.25;;
32138;SDS011;18644;48.700;9.210;2023-04-15T05:22:59;5.88;;;3.40;;
32138;SDS011;18644;48.700;9.210;2023-04-15T05:25:26;7.88;;;3.00;;
32138;SDS011;18644;48.700;9.210;2023-04-15T05:27:54;4.88;;;3.08;;
32138;SDS011;18644;48.700;9.210;2023-04-15T05:30:21;5.03;;;3.03;;
32138;SDS011;18644;48.700;9.210;2023-04-15T05:32:48;6.57;;;2.80;;
32138;SDS011;18644;48.700;9.210;2023-04-15T05:35:15;3.65;;;2.42;;
32138;SDS011;18644;48.700;9.210;2023-04-15T05:37:43;4.53;;;2.65;;
32138;SDS011;18644;48.700;9.210;2023-04-15T05:40:11;3.28;;;2.47;;
32138;SDS011;18644;48.700;9.210;2023-04-15T05:42:38;3.80;;;2.65;;
32138;SDS011;18644;48.700;9.210;2023-04-15T05:45:07;3.00;;;2.38;;
32138;SDS011;18644;48.700;9.210;2023-04-15T05:47:34;4.82;;;2.95;;
32138;SDS011;18644;48.700;9.210;2023-04-15T05:50:02;5.68;;;3.08;;
32138;SDS011;18644;48.700;9.210;2023-04-15T05:52:30;3.97;;;2.92;;
32138;SDS011;18644;48.700;9.210;2023-04-15T05:54:57;6.60;;;3.00;;
32138;SDS011;18644;48.700;9.210;2023-04-15T05:57:24;5.78;;;2.88;;
32138;SDS011;18644;48.700;9.210;2023-04-15T05:59:51;4.72;;;3.30;;
32138;SDS011;18644;48.700;9.210;2023-04-15T06:02:20;6.90;;;3.45;;
32138;SDS011;18644;48.700;9.210;2023-04-15T06:04:47;5.53;;;3.35;;
32138;SDS011;18644;48.700;9.210;2023-04-15T06:07:14;4.80;;;3.28;;
32138;SDS011;18644;48.700;9.210;2023-04-15T06:09:41;6.07;;;3.88;;
32138;SDS011;18644;48.700;9.210;2023-04-15T06:12:08;8.68;;;4.60;;
32138;SDS011;18644;48.700;9.210;2023-04-15T06:14:37;11.40;;;5.03;;
32138;SDS011;18644;48.700;9.210;2023-04-15T06:17:04;8.10;;;4.43;;
32138;SDS011;18644;48.700;9.210;2023-04-15T06:19:32;8.55;;;4.95;;
32138;SDS011;18644;48.700;9.210;2023-04-15T06:22:00;9.30;;;4.63;;
32138;SDS011;18644;48.700;9.210;2023-04-15T06:24:27;8.60;;;4.43;;
32138;SDS011;18644;48.700;9.210;2023-04-15T06:26:54;9.70;;;4.43;;
32138;SDS011;18644;48.700;9.210;2023-04-15T06:29:21;9.02;;;4.63;;
32138;SDS011;18644;48.700;9.210;2023-04-15T06:31:48;8.05;;;4.43;;
32138;SDS011;18644;48.700;9.210;2023-04-15T06:34:16;9.77;;;4.45;;
32138;SDS011;18644;48.700;9.210;2023-04-15T06:36:44;7.55;;;4.25;;
32138;SDS011;18644;48.700;9.210;2023-04-15T06:39:11;10.00;;;4.55;;
32138;SDS011;18644;48.700;9.210;2023-04-15T06:41:38;9.95;;;4.85;;
32138;SDS011;18644;48.700;9.210;2023-04-15T06:44:04;10.88;;;4.53;;
32138;SDS011;18644;48.700;9.210;2023-04-15T06:46:31;10.57;;;4.78;;
32138;SDS011;18644;48.700;9.210;2023-04-15T06:48:58;10.65;;;4.15;;
32138;SDS011;18644;48.700;9.210;2023-04-15T06:51:25;8.50;;;4.45;;
32138;SDS011;18644;48.700;9.210;2023-04-15T06:53:53;6.88;;;4.03;;
32138;SDS011;18644;48.700;9.210;2023-04-15T06:56:20;12.05;;;4.60;;
32138;SDS011;18644;48.700;9.210;2023-04-15T06:58:47;8.43;;;4.35;;
32138;SDS011;18644;48.700;9.210;2023-04-15T07:01:14;5.15;;;3.42;;
32138;SDS011;18644;48.700;9.210;2023-04-15T07:03:41;7.57;;;2.97;;
32138;SDS011;18644;48.700;9.210;2023-04-15T07:06:08;5.43;;;3.10;;
32138;SDS011;18644;48.700;9.210;2023-04-15T07:08:35;5.00;;;2.95;;
32138;SDS011;18644;48.700;9.210;2023-04-15T07:11:04;5.28;;;3.00;;
32138;SDS011;18644;48.700;9.210;2023-04-15T07:13:31;12.88;;;3.28;;
32138;SDS011;18644;48.700;9.210;2023-04-15T07:15:59;7.43;;;3.25;;
32138;SDS011;18644;48.700;9.210;2023-04-15T07:18:26;3.67;;;2.65;;
32138;SDS011;18644;48.700;9.210;2023-04-15T07:20:52;4.75;;;2.47;;
32138;SDS011;18644;48.700;9.210;2023-04-15T07:23:20;4.93;;;3.10;;
32138;SDS011;18644;48.700;9.210;2023-04-15T07:25:47;5.20;;;2.47;;
32138;SDS011;18644;48.700;9.210;2023-04-15T07:28:16;5.28;;;2.67;;
32138;SDS011;18644;48.700;9.210;2023-04-15T07:30:42;4.72;;;2.20;;
32138;SDS011;18644;48.700;9.210;2023-04-15T07:33:09;5.97;;;3.13;;
32138;SDS011;18644;48.700;9.210;2023-04-15T07:35:36;6.47;;;3.28;;
32138;SDS011;18644;48.700;9.210;2023-04-15T07:38:03;6.18;;;3.35;;
32138;SDS011;18644;48.700;9.210;2023-04-15T07:40:31;5.50;;;3.10;;
32138;SDS011;18644;48.700;9.210;2023-04-15T07:42:58;5.45;;;2.72;;
32138;SDS011;18644;48.700;9.210;2023-04-15T07:45:26;4.60;;;2.88;;
32138;SDS011;18644;48.700;9.210;2023-04-15T07:47:53;6.47;;;3.00;;
32138;SDS011;18644;48.700;9.210;2023-04-15T07:50:21;4.55;;;2.80;;
32138;SDS011;18644;48.700;9.210;2023-04-15T07:52:48;5.97;;;2.83;;
32138;SDS011;18644;48.700;9.210;2023-04-15T07:55:16;3.05;;;2.75;;
32138;SDS011;18644;48.700;9.210;2023-04-15T07:57:45;6.38;;;3.33;;
32138;SDS011;18644;48.700;9.210;2023-04-15T08:00:14;4.80;;;3.30;;
32138;SDS011;18644;48.700;9.210;2023-04-15T08:02:43;4.35;;;2.80;;
32138;SDS011;18644;48.700;9.210;2023-04-15T08:05:10;7.68;;;3.20;;
32138;SDS011;18644;48.700;9.210;2023-04-15T08:07:38;4.47;;;2.63;;
32138;SDS011;18644;48.700;9.210;2023-04-15T08:10:06;3.45;;;2.60;;
32138;SDS011;18644;48.700;9.210;2023-04-15T08:12:34;4.45;;;2.42;;
32138;SDS011;18644;48.700;9.210;2023-04-15T08:15:01;4.15;;;2.70;;
32138;SDS011;18644;48.700;9.210;2023-04-15T08:17:28;7.03;;;3.15;;
32138;SDS011;18644;48.700;9.210;2023-04-15T08:19:56;6.53;;;2.53;;
32138;SDS011;18644;48.700;9.210;2023-04-15T08:22:23;5.55;;;2.60;;
32138;SDS011;18644;48.700;9.210;2023-04-15T08:24:50;3.80;;;3.03;;
32138;SDS011;18644;48.700;9.210;2023-04-15T08:27:16;5.15;;;2.80;;
32138;SDS011;18644;48.700;9.210;2023-04-15T08:29:43;5.30;;;2.70;;
32138;SDS011;18644;48.700;9.210;2023-04-15T08:32:11;3.63;;;2.58;;
32138;SDS011;18644;48.700;9.210;2023-04-15T08:34:38;5.05;;;2.38;;
32138;SDS011;18644;48.700;9.210;2023-04-15T08:37:07;7.00;;;2.92;;
32138;SDS011;18644;48.700;9.210;2023-04-15T08:39:34;4.35;;;2.47;;
32138;SDS011;18644;48.700;9.210;2023-04-15T08:42:02;3.58;;;2.42;;
32138;SDS011;18644;48.700;9.210;2023-04-15T08:47:01;3.88;;;2.42;;
32138;SDS011;18644;48.700;9.210;2023-04-15T08:49:29;6.10;;;2.83;;
32138;SDS011;18644;48.700;9.210;2023-04-15T08:51:58;4.90;;;2.60;;
32138;SDS011;18644;48.700;9.210;2023-04-15T08:54:27;3.90;;;2.85;;
32138;SDS011;18644;48.700;9.210;2023-04-15T08:56:56;2.80;;;2.45;;
32138;SDS011;18644;48.700;9.210;2023-04-15T08:59:23;3.53;;;2.40;;
32138;SDS011;18644;48.700;9.210;2023-04-15T09:01:50;6.20;;;2.42;;
32138;SDS011;18644;48.700;9.210;2023-04-15T09:04:19;4.43;;;2.50;;
32138;SDS011;18644;48.700;9.210;2023-04-15T09:06:46;4.43;;;2.22;;
32138;SDS011;18644;48.700;9.210;2023-04-15T09:09:13;3.40;;;2.17;;
32138;SDS011;18644;48.700;9.210;2023-04-15T09:11:41;3.45;;;2.42;;
32138;SDS011;18644;48.700;9.210;2023-04-15T09:14:08;4.63;;;2.40;;
32138;SDS011;18644;48.700;9.210;2023-04-15T09:19:24;3.30;;;2.00;;
32138;SDS011;18644;48.700;9.210;2023-04-15T09:21:52;3.60;;;2.38;;
32138;SDS011;18644;48.700;9.210;2023-04-15T09:24:22;4.05;;;2.28;;
32138;SDS011;18644;48.700;9.210;2023-04-15T09:26:52;3.67;;;2.22;;
32138;SDS011;18644;48.700;9.210;2023-04-15T09:29:24;4.70;;;2.47;;
32138;SDS011;18644;48.700;9.210;2023-04-15T09:31:51;2.72;;;1.90;;
32138;SDS011;18644;48.700;9.210;2023-04-15T09:34:18;3.40;;;1.70;;
32138;SDS011;18644;48.700;9.210;2023-04-15T09:36:51;1.90;;;1.58;;
32138;SDS011;18644;48.700;9.210;2023-04-15T09:39:21;2.15;;;1.77;;
32138;SDS011;18644;48.700;9.210;2023-04-15T09:44:48;2.30;;;1.80;;
32138;SDS011;18644;48.700;9.210;2023-04-15T09:47:25;2.63;;;1.70;;
32138;SDS011;18644;48.700;9.210;2023-04-15T09:49:54;3.53;;;1.40;;
32138;SDS011;18644;48.700;9.210;2023-04-15T09:52:22;2.22;;;1.50;;
32138;SDS011;18644;48.700;9.210;2023-04-15T09:54:49;1.73;;;1.23;;
32138;SDS011;18644;48.700;9.210;2023-04-15T09:57:21;1.67;;;1.30;;
32138;SDS011;18644;48.700;9.210;2023-04-15T09:59:48;3.50;;;1.65;;
32138;SDS011;18644;48.700;9.210;2023-04-15T10:02:15;1.75;;;1.27;;
32138;SDS011;18644;48.700;9.210;2023-04-15T10:04:44;3.95;;;2.40;;
32138;SDS011;18644;48.700;9.210;2023-04-15T10:07:14;4.20;;;1.50;;
32138;SDS011;18644;48.700;9.210;2023-04-15T10:09:44;2.97;;;1.23;;
32138;SDS011;18644;48.700;9.210;2023-04-15T10:12:11;2.22;;;1.38;;
32138;SDS011;18644;48.700;9.210;2023-04-15T10:14:42;2.17;;;1.48;;
32138;SDS011;18644;48.700;9.210;2023-04-15T10:17:10;1.20;;;1.10;;
32138;SDS011;18644;48.700;9.210;2023-04-15T10:19:38;2.75;;;1.63;;
32138;SDS011;18644;48.700;9.210;2023-04-15T10:22:06;1.85;;;1.50;;
32138;SDS011;18644;48.700;9.210;2023-04-15T10:24:34;3.38;;;1.60;;
32138;SDS011;18644;48.700;9.210;2023-04-15T10:27:02;1.55;;;1.30;;
32138;SDS011;18644;48.700;9.210;2023-04-15T10:29:29;3.58;;;1.80;;
32138;SDS011;18644;48.700;9.210;2023-04-15T10:31:58;2.88;;;1.25;;
32138;SDS011;18644;48.700;9.210;2023-04-15T10:34:26;2.35;;;1.30;;
32138;SDS011;18644;48.700;9.210;2023-04-15T10:36:54;1.77;;;1.20;;
32138;SDS011;18644;48.700;9.210;2023-04-15T10:39:37;2.63;;;1.50;;
32138;SDS011;18644;48.700;9.210;2023-04-15T10:42:09;5.05;;;1.55;;
32138;SDS011;18644;48.700;9.210;2023-04-15T10:44:37;2.22;;;1.30;;
32138;SDS011;18644;48.700;9.210;2023-04-15T10:47:12;3.38;;;1.48;;
32138;SDS011;18644;48.700;9.210;2023-04-15T10:49:43;4.95;;;1.67;;
32138;SDS011;18644;48.700;9.210;2023-04-15T10:52:13;2.65;;;1.30;;
32138;SDS011;18644;48.700;9.210;2023-04-15T10:54:42;1.90;;;1.33;;
32138;SDS011;18644;48.700;9.210;2023-04-15T10:57:14;2.78;;;1.58;;
32138;SDS011;18644;48.700;9.210;2023-04-15T11:02:40;5.20;;;1.60;;
32138;SDS011;18644;48.700;9.210;2023-04-15T11:05:09;4.15;;;1.38;;
32138;SDS011;18644;48.700;9.210;2023-04-15T11:07:38;3.08;;;1.20;;
32138;SDS011;18644;48.700;9.210;2023-04-15T11:13:20;2.47;;;1.33;;
32138;SDS011;18644;48.700;9.210;2023-04-15T11:15:56;4.03;;;1.65;;
32138;SDS011;18644;48.700;9.210;2023-04-15T11:18:29;3.83;;;1.95;;
32138;SDS011;18644;48.700;9.210;2023-04-15T11:20:59;5.35;;;2.00;;
32138;SDS011;18644;48.700;9.210;2023-04-15T11:23:30;5.40;;;1.88;;
32138;SDS011;18644;48.700;9.210;2023-04-15T11:26:00;6.40;;;2.22;;
32138;SDS011;18644;48.700;9.210;2023-04-15T11:28:29;2.78;;;1.48;;
32138;SDS011;18644;48.700;9.210;2023-04-15T11:30:59;5.53;;;1.73;;
32138;SDS011;18644;48.700;9.210;2023-04-15T11:33:36;7.70;;;4.38;;
32138;SDS011;18644;48.700;9.210;2023-04-15T11:36:04;7.07;;;3.05;;
32138;SDS011;18644;48.700;9.210;2023-04-15T11:38:31;3.50;;;2.05;;
32138;SDS011;18644;48.700;9.210;2023-04-15T11:41:00;2.05;;;1.35;;
32138;SDS011;18644;48.700;9.210;2023-04-15T11:43:27;3.88;;;1.90;;
32138;SDS011;18644;48.700;9.210;2023-04-15T11:46:00;4.68;;;1.70;;
32138;SDS011;18644;48.700;9.210;2023-04-15T11:48:29;3.55;;;1.80;;
32138;SDS011;18644;48.700;9.210;2023-04-15T11:51:00;2.88;;;1.80;;
32138;SDS011;18644;48.700;9.210;2023-04-15T11:53:35;2.42;;;1.58;;
32138;SDS011;18644;48.700;9.210;2023-04-15T11:56:05;3.15;;;1.55;;
32138;SDS011;18644;48.700;9.210;2023-04-15T11:58:34;4.72;;;2.42;;
32138;SDS011;18644;48.700;9.210;2023-04-15T12:01:03;3.65;;;1.75;;
32138;SDS011;18644;48.700;9.210;2023-04-15T12:03:35;4.45;;;2.47;;
32138;SDS011;18644;48.700;9.210;2023-04-15T12:06:08;3.80;;;2.20;;
32138;SDS011;18644;48.700;9.210;2023-04-15T12:08:57;3.92;;;1.92;;
32138;SDS011;18644;48.700;9.210;2023-04-15T12:11:29;3.00;;;1.50;;
32138;SDS011;18644;48.700;9.210;2023-04-15T12:14:03;3.22;;;2.28;;
32138;SDS011;18644;48.700;9.210;2023-04-15T12:16:34;2.70;;;2.10;;
32138;SDS011;18644;48.700;9.210;2023-04-15T12:19:04;2.15;;;1.40;;
32138;SDS011;18644;48.700;9.210;2023-04-15T12:21:36;4.13;;;1.50;;
32138;SDS011;18644;48.700;9.210;2023-04-15T12:24:06;3.80;;;1.77;;
32138;SDS011;18644;48.700;9.210;2023-04-15T12:26:37;3.60;;;1.95;;
32138;SDS011;18644;48.700;9.210;2023-04-15T12:29:11;2.75;;;1.83;;
32138;SDS011;18644;48.700;9.210;2023-04-15T12:31:46;3.70;;;1.75;;
32138;SDS011;18644;48.700;9.210;2023-04-15T12:34:15;2.60;;;1.80;;
32138;SDS011;18644;48.700;9.210;2023-04-15T12:36:45;5.65;;;2.25;;
32138;SDS011;18644;48.700;9.210;2023-04-15T12:39:12;4.35;;;1.98;;
32138;SDS011;18644;48.700;9.210;2023-04-15T12:41:39;2.40;;;1.77;;
32138;SDS011;18644;48.700;9.210;2023-04-15T12:44:06;5.10;;;2.25;;
32138;SDS011;18644;48.700;9.210;2023-04-15T12:46:33;3.67;;;1.85;;
32138;SDS011;18644;48.700;9.210;2023-04-15T12:49:00;3.50;;;1.77;;
32138;SDS011;18644;48.700;9.210;2023-04-15T12:51:27;3.08;;;1.63;;
32138;SDS011;18644;48.700;9.210;2023-04-15T12:53:57;2.35;;;1.60;;
32138;SDS011;18644;48.700;9.210;2023-04-15T12:56:24;2.08;;;1.77;;
32138;SDS011;18644;48.700;9.210;2023-04-15T12:58:51;2.65;;;1.70;;
32138;SDS011;18644;48.700;9.210;2023-04-15T13:01:18;2.15;;;1.40;;
32138;SDS011;18644;48.700;9.210;2023-04-15T13:03:45;3.00;;;1.60;;
32138;SDS011;18644;48.700;9.210;2023-04-15T13:06:12;2.45;;;1.70;;
32138;SDS011;18644;48.700;9.210;2023-04-15T13:08:38;2.65;;;1.50;;
32138;SDS011;18644;48.700;9.210;2023-04-15T13:11:07;1.60;;;1.50;;
32138;SDS011;18644;48.700;9.210;2023-04-15T13:13:34;3.45;;;2.00;;
32138;SDS011;18644;48.700;9.210;2023-04-15T13:16:01;2.25;;;1.48;;
32138;SDS011;18644;48.700;9.210;2023-04-15T13:18:28;1.80;;;1.50;;
32138;SDS011;18644;48.700;9.210;2023-04-15T13:20:56;2.65;;;1.30;;
32138;SDS011;18644;48.700;9.210;2023-04-15T13:23:23;1.67;;;1.20;;
32138;SDS011;18644;48.700;9.210;2023-04-15T13:25:49;4.00;;;1.45;;
32138;SDS011;18644;48.700;9.210;2023-04-15T13:28:18;1.27;;;1.17;;
32138;SDS011;18644;48.700;9.210;2023-04-15T13:30:45;1.30;;;1.10;;
32138;SDS011;18644;48.700;9.210;2023-04-15T13:33:13;1.40;;;1.30;;
32138;SDS011;18644;48.700;9.210;2023-04-15T13:35:41;2.90;;;1.60;;
32138;SDS011;18644;48.700;9.210;2023-04-15T13:38:08;2.83;;;1.50;;
32138;SDS011;18644;48.700;9.210;2023-04-15T13:40:36;1.67;;;1.35;;
32138;SDS011;18644;48.700;9.210;2023-04-15T13:43:05;1.38;;;1.23;;
32138;SDS011;18644;48.700;9.210;2023-04-15T13:45:33;3.92;;;1.23;;
32138;SDS011;18644;48.700;9.210;2023-04-15T13:48:00;2.63;;;1.20;;
32138;SDS011;18644;48.700;9.210;2023-04-15T13:50:27;2.58;;;1.27;;
32138;SDS011;18644;48.700;9.210;2023-04-15T13:52:54;1.52;;;1.20;;
32138;SDS011;18644;48.700;9.210;2023-04-15T13:55:25;2.03;;;1.10;;
32138;SDS011;18644;48.700;9.210;2023-04-15T13:57:52;2.50;;;1.25;;
32138;SDS011;18644;48.700;9.210;2023-04-15T14:00:19;1.55;;;1.00;;
32138;SDS011;18644;48.700;9.210;2023-04-15T14:02:47;4.10;;;1.10;;
32138;SDS011;18644;48.700;9.210;2023-04-15T14:05:14;2.90;;;1.15;;
32138;SDS011;18644;48.700;9.210;2023-04-15T14:07:41;1.85;;;1.25;;
32138;SDS011;18644;48.700;9.210;2023-04-15T14:10:08;2.00;;;1.23;;
32138;SDS011;18644;48.700;9.210;2023-04-15T14:12:36;1.00;;;0.90;;
32138;SDS011;18644;48.700;9.210;2023-04-15T14:15:03;1.27;;;1.02;;
32138;SDS011;18644;48.700;9.210;2023-04-15T14:17:32;2.15;;;1.15;;
32138;SDS011;18644;48.700;9.210;2023-04-15T14:20:00;2.13;;;1.13;;
32138;SDS011;18644;48.700;9.210;2023-04-15T14:22:27;1.83;;;1.05;;
32138;SDS011;18644;48.700;9.210;2023-04-15T14:24:54;1.10;;;0.90;;
32138;SDS011;18644;48.700;9.210;2023-04-15T14:27:21;1.33;;;0.70;;
32138;SDS011;18644;48.700;9.210;2023-04-15T14:29:48;0.93;;;0.80;;
32138;SDS011;18644;48.700;9.210;2023-04-15T14:32:15;1.90;;;0.88;;
32138;SDS011;18644;48.700;9.210;2023-04-15T14:34:42;1.70;;;0.85;;
32138;SDS011;18644;48.700;9.210;2023-04-15T14:37:10;0.93;;;0.82;;
32138;SDS011;18644;48.700;9.210;2023-04-15T14:39:37;2.88;;;1.27;;
32138;SDS011;18644;48.700;9.210;2023-04-15T14:42:04;0.98;;;0.77;;
32138;SDS011;18644;48.700;9.210;2023-04-15T14:44:31;2.63;;;1.30;;
32138;SDS011;18644;48.700;9.210;2023-04-15T14:46:58;1.92;;;1.10;;
32138;SDS011;18644;48.700;9.210;2023-04-15T14:49:25;0.98;;;0.85;;
32138;SDS011;18644;48.700;9.210;2023-04-15T14:51:51;1.67;;;0.90;;
32138;SDS011;18644;48.700;9.210;2023-04-15T14:54:20;0.70;;;0.70;;
32138;SDS011;18644;48.700;9.210;2023-04-15T14:56:46;1.70;;;1.10;;
32138;SDS011;18644;48.700;9.210;2023-04-15T14:59:13;1.42;;;0.98;;
32138;SDS011;18644;48.700;9.210;2023-04-15T15:01:40;1.85;;;0.93;;
32138;SDS011;18644;48.700;9.210;2023-04-15T15:04:08;0.90;;;0.80;;
32138;SDS011;18644;48.700;9.210;2023-04-15T15:06:36;1.20;;;1.00;;